Time;durP1;ratioP1;P1;durP2;ratioP2;P2;SDS_P1;SDS_P2;PMS_P1;PMS_P2;Temp;Humidity;BMP_temperature;BMP_pressure;BME280_temperature;BME280_humidity;BME280_pressure;Samples;Min_cycle;Max_cycle;Signal;HPM_P1;HPM_P2
2022/01/31 00:00:24;;;;;;;9.63;3.60;;;5.30;85.60;;;;;;2084739;28;20048;-87
2022/01/31 00:01:24;;;;;;;8.80;2.72;;;5.30;85.70;;;;;;2081217;28;20041;-87
2022/01/31 00:02:25;;;;;;;9.80;3.20;;;5.30;85.70;;;;;;2082106;28;20103;-87
2022/01/31 00:03:26;;;;;;;9.77;3.10;;;5.30;85.70;;;;;;2087538;28;20036;-87
2022/01/31 00:04:27;;;;;;;7.80;3.20;;;5.30;85.70;;;;;;2079246;28;20030;-87
2022/01/31 00:05:28;;;;;;;10.43;3.58;;;5.30;85.70;;;;;;2074352;28;20243;-87
2022/01/31 00:06:28;;;;;;;12.40;4.10;;;5.30;85.60;;;;;;2065902;28;20038;-87
2022/01/31 00:07:29;;;;;;;10.63;3.60;;;5.30;85.60;;;;;;2080936;28;20037;-87
2022/01/31 00:08:31;;;;;;;11.88;3.40;;;5.30;85.60;;;;;;2081935;28;20068;-88
2022/01/31 00:09:31;;;;;;;12.43;3.40;;;5.30;85.60;;;;;;2098230;28;20604;-87
2022/01/31 00:10:32;;;;;;;8.68;3.38;;;5.30;85.60;;;;;;2102634;28;20040;-88
2022/01/31 00:11:41;;;;;;;10.07;3.28;;;5.30;85.60;;;;;;2081810;28;20427;-87
2022/01/31 00:12:58;;;;;;;8.82;3.22;;;5.30;85.60;;;;;;2071275;28;20031;-88
2022/01/31 00:14:09;;;;;;;7.05;3.00;;;5.30;85.60;;;;;;2072415;28;20033;-88
2022/01/31 00:15:10;;;;;;;9.07;2.97;;;5.30;85.70;;;;;;2078574;28;20045;-88
2022/01/31 00:16:16;;;;;;;10.40;3.40;;;5.30;85.70;;;;;;2075474;28;20077;-87
2022/01/31 00:17:17;;;;;;;8.77;2.97;;;5.30;86.00;;;;;;2081440;28;20459;-87
2022/01/31 00:18:18;;;;;;;8.77;2.92;;;5.30;85.70;;;;;;2074722;28;20069;-87
2022/01/31 00:19:19;;;;;;;7.95;2.83;;;5.30;85.70;;;;;;2078004;28;20101;-88
2022/01/31 00:20:20;;;;;;;8.35;3.00;;;5.30;85.80;;;;;;2081639;28;20037;-88
2022/01/31 00:21:20;;;;;;;9.85;3.17;;;5.30;85.80;;;;;;2074448;28;20068;-88
2022/01/31 00:22:21;;;;;;;9.68;3.13;;;5.30;85.80;;;;;;2098302;28;20084;-87
2022/01/31 00:23:22;;;;;;;9.57;3.28;;;5.30;85.80;;;;;;2084293;28;20499;-87
2022/01/31 00:24:22;;;;;;;9.45;3.35;;;5.30;85.80;;;;;;2073217;28;20062;-87
2022/01/31 00:25:23;;;;;;;9.35;3.28;;;5.30;85.90;;;;;;2080496;28;20157;-87
2022/01/31 00:26:24;;;;;;;12.68;3.60;;;5.30;85.90;;;;;;2087940;28;20025;-87
2022/01/31 00:27:25;;;;;;;10.52;3.58;;;5.30;85.90;;;;;;2073217;28;20493;-88
2022/01/31 00:28:25;;;;;;;11.77;3.72;;;5.30;86.00;;;;;;2066647;28;20041;-87
2022/01/31 00:29:26;;;;;;;10.93;3.88;;;5.30;86.00;;;;;;2088755;28;20381;-88
2022/01/31 00:30:26;;;;;;;10.05;3.97;;;5.30;86.00;;;;;;2090200;28;20049;-88
2022/01/31 00:31:27;;;;;;;10.23;3.60;;;5.30;86.00;;;;;;2098415;28;20131;-88
2022/01/31 00:32:29;;;;;;;12.32;4.20;;;5.30;86.00;;;;;;2090352;28;20037;-88
2022/01/31 00:33:30;;;;;;;10.00;3.47;;;5.30;86.00;;;;;;2090209;28;20593;-88
2022/01/31 00:34:31;;;;;;;10.20;3.42;;;5.30;86.00;;;;;;2081374;28;20133;-88
2022/01/31 00:35:32;;;;;;;13.07;3.85;;;5.30;86.00;;;;;;2081437;28;20064;-88
2022/01/31 00:36:33;;;;;;;8.65;3.28;;;5.30;86.10;;;;;;2094471;28;20486;-87
2022/01/31 00:37:34;;;;;;;10.35;3.65;;;5.30;86.10;;;;;;2097717;28;20521;-87
2022/01/31 00:38:34;;;;;;;9.98;3.60;;;5.30;86.20;;;;;;2088070;28;20033;-88
2022/01/31 00:39:36;;;;;;;10.63;3.45;;;5.30;86.20;;;;;;2093380;28;20123;-87
2022/01/31 00:40:41;;;;;;;10.05;3.55;;;5.30;86.80;;;;;;2095222;28;20119;-87
2022/01/31 00:41:42;;;;;;;9.88;3.35;;;5.30;86.30;;;;;;2095128;28;20040;-87
2022/01/31 00:42:43;;;;;;;9.32;3.72;;;5.30;86.40;;;;;;2097565;28;20062;-88
2022/01/31 00:43:55;;;;;;;10.70;3.72;;;5.30;86.50;;;;;;2092943;28;20104;-87
2022/01/31 00:45:06;;;;;;;11.35;3.78;;;5.20;86.60;;;;;;2081021;28;20181;-87
2022/01/31 00:46:12;;;;;;;12.05;3.88;;;5.20;86.80;;;;;;2092182;28;20099;-88
2022/01/31 00:47:19;;;;;;;12.02;3.95;;;5.20;87.00;;;;;;2096307;28;20091;-88
2022/01/31 00:48:24;;;;;;;10.35;3.38;;;5.20;87.00;;;;;;2081814;28;20034;-88
2022/01/31 00:50:39;;;;;;;12.80;3.80;;;5.10;87.30;;;;;;2075857;28;20132;-88
2022/01/31 00:51:39;;;;;;;8.50;3.50;;;5.10;87.50;;;;;;2082890;28;20505;-88
2022/01/31 00:52:43;;;;;;;7.38;3.05;;;5.10;87.60;;;;;;2089129;28;20087;-88
2022/01/31 00:53:44;;;;;;;8.88;3.42;;;5.00;87.70;;;;;;2073056;28;20034;-88
2022/01/31 00:54:46;;;;;;;11.00;3.20;;;5.00;88.00;;;;;;2088926;28;20128;-88
2022/01/31 00:55:46;;;;;;;8.45;3.28;;;5.00;88.10;;;;;;2097925;28;20051;-88
2022/01/31 00:56:47;;;;;;;11.40;3.25;;;5.00;88.20;;;;;;2089119;28;20037;-88
2022/01/31 00:57:48;;;;;;;9.80;3.70;;;5.00;88.30;;;;;;2073398;28;20479;-87
2022/01/31 00:58:48;;;;;;;8.68;3.25;;;4.90;88.40;;;;;;2065171;28;20034;-88
2022/01/31 00:59:51;;;;;;;8.18;3.20;;;4.90;88.50;;;;;;2080356;28;20046;-87
2022/01/31 01:00:51;;;;;;;10.95;3.50;;;4.90;88.60;;;;;;2079519;28;20096;-88
2022/01/31 01:01:52;;;;;;;8.43;3.38;;;4.90;88.70;;;;;;2082618;28;20407;-88
2022/01/31 01:02:52;;;;;;;8.75;3.05;;;4.90;89.40;;;;;;2072534;28;20400;-88
2022/01/31 01:03:53;;;;;;;9.45;3.40;;;4.90;88.90;;;;;;2073362;28;20034;-88
2022/01/31 01:04:54;;;;;;;9.98;3.00;;;4.80;89.00;;;;;;2080707;28;20448;-88
2022/01/31 01:05:54;;;;;;;7.75;2.97;;;4.80;89.10;;;;;;2072967;28;20057;-88
2022/01/31 01:06:56;;;;;;;8.20;3.28;;;4.80;89.20;;;;;;2089796;28;20033;-88
2022/01/31 01:07:57;;;;;;;11.90;3.63;;;4.80;89.40;;;;;;2098002;28;20037;-88
2022/01/31 01:08:57;;;;;;;10.68;3.47;;;4.80;89.60;;;;;;2084366;28;20038;-88
2022/01/31 01:09:58;;;;;;;10.93;3.50;;;4.80;89.70;;;;;;2087705;28;20076;-88
2022/01/31 01:10:59;;;;;;;11.23;3.97;;;4.70;89.80;;;;;;2074541;28;20163;-87
2022/01/31 01:11:59;;;;;;;11.38;4.07;;;4.70;90.00;;;;;;2089152;28;20059;-87
2022/01/31 01:13:00;;;;;;;8.57;3.60;;;4.70;90.00;;;;;;2091241;28;20026;-85
2022/01/31 01:14:01;;;;;;;10.48;4.20;;;4.70;90.10;;;;;;2071932;28;20029;-88
2022/01/31 01:15:02;;;;;;;10.68;3.78;;;4.70;90.40;;;;;;2088131;28;20018;-87
2022/01/31 01:16:03;;;;;;;11.65;4.00;;;4.70;90.20;;;;;;2081636;28;20053;-88
2022/01/31 01:17:04;;;;;;;10.25;3.75;;;4.60;90.20;;;;;;2072861;28;20033;-88
2022/01/31 01:18:05;;;;;;;10.30;3.95;;;4.70;90.30;;;;;;2077573;28;20037;-88
2022/01/31 01:19:06;;;;;;;12.13;3.58;;;4.60;90.30;;;;;;2089519;28;20041;-88
2022/01/31 01:20:07;;;;;;;10.07;3.50;;;4.60;90.60;;;;;;2089157;28;20582;-88
2022/01/31 01:21:08;;;;;;;11.05;3.80;;;4.60;90.40;;;;;;2084599;28;20132;-88
2022/01/31 01:22:09;;;;;;;8.50;3.83;;;4.60;90.50;;;;;;2065472;28;20153;-88
2022/01/31 01:23:09;;;;;;;9.38;3.35;;;4.60;90.50;;;;;;2073497;28;20098;-88
2022/01/31 01:24:10;;;;;;;8.00;3.00;;;4.60;90.60;;;;;;2084637;28;20077;-88
2022/01/31 01:25:13;;;;;;;10.10;4.25;;;4.60;90.60;;;;;;2097665;28;20040;-88
2022/01/31 01:26:14;;;;;;;8.52;3.00;;;4.50;90.70;;;;;;2088793;28;20431;-88
2022/01/31 01:27:18;;;;;;;10.23;3.42;;;4.50;90.70;;;;;;2073211;28;20060;-88
2022/01/31 01:28:22;;;;;;;10.75;3.30;;;4.60;90.80;;;;;;2088140;28;20037;-88
2022/01/31 01:29:23;;;;;;;7.72;3.35;;;4.50;90.80;;;;;;2065903;28;20042;-88
2022/01/31 01:30:23;;;;;;;10.05;3.95;;;4.50;90.90;;;;;;2073654;28;20161;-87
2022/01/31 01:31:24;;;;;;;13.27;4.10;;;4.50;91.00;;;;;;2091435;28;20037;-87
2022/01/31 01:32:28;;;;;;;10.10;3.63;;;4.50;91.10;;;;;;2088861;28;20029;-87
2022/01/31 01:33:29;;;;;;;13.75;4.28;;;4.50;91.10;;;;;;2097404;28;20063;-87
2022/01/31 01:34:32;;;;;;;13.63;4.00;;;4.40;91.20;;;;;;2080766;28;20029;-86
2022/01/31 01:35:36;;;;;;;12.18;3.78;;;4.40;91.20;;;;;;2075247;28;20436;-87
2022/01/31 01:36:38;;;;;;;8.25;3.30;;;4.40;91.20;;;;;;2074506;28;20034;-87
2022/01/31 01:37:39;;;;;;;11.48;3.65;;;4.40;91.30;;;;;;2073013;28;20037;-87
2022/01/31 01:38:40;;;;;;;10.63;3.60;;;4.40;91.40;;;;;;2073055;28;20128;-87
2022/01/31 01:39:41;;;;;;;7.13;3.25;;;4.40;91.40;;;;;;2097852;28;20119;-88
2022/01/31 01:40:44;;;;;;;8.75;3.50;;;4.40;91.40;;;;;;2105583;28;20068;-87
2022/01/31 01:41:45;;;;;;;9.80;3.70;;;4.40;91.50;;;;;;2089649;28;20036;-88
2022/01/31 01:42:45;;;;;;;9.85;3.72;;;4.40;91.50;;;;;;2075903;28;20050;-87
2022/01/31 01:43:46;;;;;;;10.13;3.38;;;4.40;91.60;;;;;;2089619;28;20103;-87
2022/01/31 01:44:51;;;;;;;9.30;3.40;;;4.40;91.60;;;;;;2088813;28;20558;-87
2022/01/31 01:45:54;;;;;;;9.48;3.35;;;4.40;91.60;;;;;;2092537;28;20039;-87
2022/01/31 01:46:54;;;;;;;9.32;3.50;;;4.40;91.70;;;;;;2086985;28;20469;-87
2022/01/31 01:47:55;;;;;;;8.35;3.50;;;4.40;91.80;;;;;;2078651;28;20041;-87
2022/01/31 01:48:56;;;;;;;10.55;3.88;;;4.40;91.90;;;;;;2097575;28;20040;-87
2022/01/31 01:49:57;;;;;;;9.00;4.28;;;4.40;91.90;;;;;;2093847;28;20433;-87
2022/01/31 01:50:59;;;;;;;11.75;4.57;;;4.40;91.90;;;;;;2089016;28;20055;-87
2022/01/31 01:51:59;;;;;;;10.85;4.25;;;4.40;92.10;;;;;;2088577;28;20033;-87
2022/01/31 01:53:01;;;;;;;10.63;5.05;;;4.30;92.10;;;;;;2089081;28;20061;-88
2022/01/31 01:54:02;;;;;;;11.93;4.22;;;4.30;92.10;;;;;;2085377;28;20034;-87
2022/01/31 01:55:03;;;;;;;9.18;4.63;;;4.30;92.20;;;;;;2089132;28;20090;-88
2022/01/31 01:56:04;;;;;;;8.40;4.30;;;4.30;92.20;;;;;;2088340;28;20041;-87
2022/01/31 01:57:05;;;;;;;7.20;3.88;;;4.30;92.20;;;;;;2089143;28;20115;-88
2022/01/31 01:58:13;;;;;;;11.20;3.65;;;4.30;92.20;;;;;;2098263;28;20040;-87
2022/01/31 01:59:14;;;;;;;9.55;3.90;;;4.30;92.30;;;;;;2090506;28;20044;-87
2022/01/31 02:00:18;;;;;;;10.93;4.10;;;4.30;92.30;;;;;;2083085;28;20073;-88
2022/01/31 02:01:19;;;;;;;12.23;4.10;;;4.30;92.30;;;;;;2082570;28;20039;-87
2022/01/31 02:02:20;;;;;;;7.53;3.38;;;4.30;92.30;;;;;;2089472;28;20056;-88
2022/01/31 02:03:21;;;;;;;7.40;3.60;;;4.30;92.30;;;;;;2080942;28;20041;-87
2022/01/31 02:04:22;;;;;;;11.70;3.83;;;4.30;92.30;;;;;;2078531;28;20128;-88
2022/01/31 02:05:23;;;;;;;9.50;4.13;;;4.30;92.30;;;;;;2081059;28;20447;-88
2022/01/31 02:06:23;;;;;;;8.75;3.95;;;4.30;92.40;;;;;;2088682;28;20043;-87
2022/01/31 02:07:24;;;;;;;7.78;3.90;;;4.30;92.40;;;;;;2084302;28;20423;-87
2022/01/31 02:08:27;;;;;;;8.18;4.13;;;4.30;92.50;;;;;;2088703;28;20100;-88
2022/01/31 02:09:30;;;;;;;6.70;3.55;;;4.30;92.80;;;;;;2105804;28;20059;-88
2022/01/31 02:10:31;;;;;;;10.13;3.78;;;4.30;92.60;;;;;;2096694;28;20441;-87
2022/01/31 02:11:32;;;;;;;9.15;4.00;;;4.30;92.60;;;;;;2089466;28;20041;-87
2022/01/31 02:12:46;;;;;;;8.05;3.55;;;4.40;92.60;;;;;;2097534;28;20437;-87
2022/01/31 02:13:47;;;;;;;7.75;3.78;;;4.30;92.60;;;;;;2089669;28;20545;-87
2022/01/31 02:14:48;;;;;;;8.18;3.53;;;4.40;92.60;;;;;;2084798;28;20037;-87
2022/01/31 02:15:50;;;;;;;8.23;3.80;;;4.40;92.60;;;;;;2071446;28;20568;-87
2022/01/31 02:16:52;;;;;;;7.38;3.45;;;4.40;92.70;;;;;;2072517;28;20045;-87
2022/01/31 02:17:52;;;;;;;8.38;3.85;;;4.40;92.60;;;;;;2088175;28;20029;-87
2022/01/31 02:18:54;;;;;;;9.85;3.88;;;4.40;92.70;;;;;;2087305;28;20572;-88
2022/01/31 02:19:55;;;;;;;7.50;3.60;;;4.40;92.70;;;;;;2080255;28;20487;-88
2022/01/31 02:20:56;;;;;;;7.55;3.40;;;4.40;93.00;;;;;;2081090;28;20030;-87
2022/01/31 02:21:57;;;;;;;8.68;3.65;;;4.40;92.70;;;;;;2080943;28;20570;-87
2022/01/31 02:22:58;;;;;;;8.82;3.65;;;4.50;92.70;;;;;;2096895;28;20024;-88
2022/01/31 02:24:01;;;;;;;7.53;3.38;;;4.50;92.80;;;;;;2096855;28;20141;-88
2022/01/31 02:25:04;;;;;;;7.90;3.78;;;4.50;92.80;;;;;;2089081;28;20075;-87
2022/01/31 02:26:06;;;;;;;6.38;3.30;;;4.50;92.80;;;;;;2087292;28;20123;-88
2022/01/31 02:27:07;;;;;;;6.53;3.20;;;4.50;92.80;;;;;;2097606;28;20067;-87
2022/01/31 02:28:07;;;;;;;8.60;3.60;;;4.50;92.80;;;;;;2097638;28;20033;-88
2022/01/31 02:29:11;;;;;;;9.02;3.42;;;4.50;92.80;;;;;;2089156;28;20033;-88
2022/01/31 02:30:15;;;;;;;8.35;3.50;;;4.50;92.80;;;;;;2089137;28;20041;-88
2022/01/31 02:31:15;;;;;;;8.02;3.55;;;4.50;92.90;;;;;;2075810;28;20143;-88
2022/01/31 02:32:20;;;;;;;6.15;3.08;;;4.50;93.10;;;;;;2092725;28;20489;-87
2022/01/31 02:33:21;;;;;;;5.47;2.80;;;4.60;92.90;;;;;;2098966;28;20410;-88
2022/01/31 02:34:21;;;;;;;7.93;3.10;;;4.60;92.90;;;;;;2088082;28;20025;-88
2022/01/31 02:35:22;;;;;;;7.40;3.17;;;4.60;92.90;;;;;;2081003;28;20092;-88
2022/01/31 02:36:23;;;;;;;9.02;3.13;;;4.60;92.90;;;;;;2079969;28;20029;-88
2022/01/31 02:37:23;;;;;;;7.40;3.28;;;4.60;92.90;;;;;;2092997;28;20415;-88
2022/01/31 02:38:24;;;;;;;6.93;3.25;;;4.60;92.90;;;;;;2098014;28;20040;-88
2022/01/31 02:39:25;;;;;;;9.15;3.97;;;4.70;93.00;;;;;;2088439;28;20033;-88
2022/01/31 02:40:26;;;;;;;8.25;3.53;;;4.60;92.90;;;;;;2067152;28;20034;-88
2022/01/31 02:41:30;;;;;;;7.85;3.20;;;4.70;93.00;;;;;;2067338;28;20065;-88
2022/01/31 02:42:31;;;;;;;7.57;2.92;;;4.60;93.00;;;;;;2077341;28;20542;-88
2022/01/31 02:43:33;;;;;;;6.20;2.95;;;4.70;93.00;;;;;;2090139;28;20041;-88
2022/01/31 02:44:38;;;;;;;9.85;3.45;;;4.70;93.30;;;;;;2084956;28;20044;-88
2022/01/31 02:45:38;;;;;;;6.07;3.03;;;4.70;93.00;;;;;;2081773;28;20041;-89
2022/01/31 02:46:39;;;;;;;7.05;3.17;;;4.70;93.00;;;;;;2072337;28;20038;-89
2022/01/31 02:47:43;;;;;;;8.27;3.20;;;4.70;93.00;;;;;;2089245;28;20518;-89
2022/01/31 02:48:44;;;;;;;8.25;3.17;;;4.70;93.00;;;;;;2094349;28;20086;-89
2022/01/31 02:49:53;;;;;;;5.80;2.75;;;4.70;93.30;;;;;;2083937;28;20124;-89
2022/01/31 02:50:54;;;;;;;5.25;2.90;;;4.70;93.10;;;;;;2073257;28;20048;-89
2022/01/31 02:51:59;;;;;;;5.38;2.78;;;4.80;93.10;;;;;;2073169;28;20062;-89
2022/01/31 02:53:14;;;;;;;9.15;3.28;;;4.80;93.10;;;;;;2089791;28;20033;-88
2022/01/31 02:54:15;;;;;;;6.03;2.80;;;4.80;93.40;;;;;;2097620;28;20052;-88
2022/01/31 02:55:17;;;;;;;5.00;2.65;;;4.80;93.40;;;;;;2085615;28;20044;-88
2022/01/31 02:56:17;;;;;;;6.38;3.00;;;4.80;93.10;;;;;;2087984;28;20072;-88
2022/01/31 02:57:18;;;;;;;5.45;2.90;;;4.80;93.40;;;;;;2089184;28;20607;-88
2022/01/31 02:58:19;;;;;;;6.78;2.55;;;4.80;93.10;;;;;;2072525;28;20048;-89
2022/01/31 02:59:20;;;;;;;6.25;2.55;;;4.90;93.20;;;;;;2068264;28;20124;-88
2022/01/31 03:00:20;;;;;;;6.45;2.78;;;4.90;93.20;;;;;;2096728;28;20368;-88
2022/01/31 03:01:21;;;;;;;6.53;3.00;;;4.90;93.20;;;;;;2088118;28;20087;-88
2022/01/31 03:02:22;;;;;;;9.20;3.33;;;4.90;93.20;;;;;;2072671;28;20034;-88
2022/01/31 03:03:23;;;;;;;6.45;3.03;;;4.90;93.40;;;;;;2082304;28;20173;-89
2022/01/31 03:04:24;;;;;;;7.53;3.20;;;5.00;93.40;;;;;;2093038;28;20499;-88
2022/01/31 03:05:24;;;;;;;5.68;2.67;;;5.00;93.40;;;;;;2086488;28;20087;-89
2022/01/31 03:06:25;;;;;;;5.68;3.10;;;5.00;93.40;;;;;;2072960;28;20073;-88
2022/01/31 03:07:25;;;;;;;5.72;2.40;;;5.00;93.40;;;;;;2087634;28;20511;-89
2022/01/31 03:08:26;;;;;;;6.00;2.97;;;5.00;93.40;;;;;;2106063;28;20036;-89
2022/01/31 03:09:27;;;;;;;6.07;2.80;;;5.10;93.40;;;;;;2087938;28;20068;-89
2022/01/31 03:10:28;;;;;;;5.88;2.65;;;5.10;93.40;;;;;;2079495;28;20029;-89
2022/01/31 03:11:28;;;;;;;6.95;2.97;;;5.10;93.70;;;;;;2091409;28;20037;-89
2022/01/31 03:12:29;;;;;;;6.90;3.08;;;5.10;93.50;;;;;;2104463;28;20444;-88
2022/01/31 03:13:30;;;;;;;7.05;2.80;;;5.10;94.00;;;;;;2094796;28;20103;-89
2022/01/31 03:14:31;;;;;;;6.10;2.90;;;5.20;93.60;;;;;;2099006;28;20029;-89
2022/01/31 03:15:33;;;;;;;8.35;2.90;;;5.20;93.60;;;;;;2091247;28;20037;-90
2022/01/31 03:16:39;;;;;;;7.70;2.63;;;5.20;93.60;;;;;;2089202;28;20037;-89
2022/01/31 03:17:45;;;;;;;6.63;2.58;;;5.20;93.80;;;;;;2097684;28;20372;-89
2022/01/31 03:18:47;;;;;;;6.03;2.70;;;5.20;93.50;;;;;;2098849;28;20110;-89
2022/01/31 03:19:53;;;;;;;4.43;2.05;;;5.20;93.50;;;;;;2085830;28;20215;-89
2022/01/31 03:20:53;;;;;;;5.15;1.90;;;5.30;93.50;;;;;;2082564;28;20491;-89
2022/01/31 03:21:54;;;;;;;6.78;2.58;;;5.30;93.50;;;;;;2083076;28;20025;-89
2022/01/31 03:22:54;;;;;;;4.05;2.15;;;5.30;93.50;;;;;;2082931;28;20041;-89
2022/01/31 03:23:55;;;;;;;5.78;2.30;;;5.30;93.60;;;;;;2082287;28;20117;-89
2022/01/31 03:24:56;;;;;;;5.93;2.40;;;5.30;93.60;;;;;;2090019;28;20523;-89
2022/01/31 03:25:56;;;;;;;5.72;2.17;;;5.30;93.70;;;;;;2091063;28;20041;-89
2022/01/31 03:26:57;;;;;;;4.03;2.00;;;5.30;93.60;;;;;;2090126;28;20029;-89
2022/01/31 03:27:58;;;;;;;6.35;2.80;;;5.30;93.60;;;;;;2090507;28;20077;-89
2022/01/31 03:28:58;;;;;;;6.70;2.10;;;5.40;93.60;;;;;;2068191;28;20049;-90
2022/01/31 03:29:59;;;;;;;7.60;2.30;;;5.40;93.70;;;;;;2083057;28;20044;-89
2022/01/31 03:31:00;;;;;;;7.25;2.60;;;5.40;93.70;;;;;;2099300;28;20418;-89
2022/01/31 03:32:00;;;;;;;4.85;2.03;;;5.40;93.70;;;;;;2082415;28;20041;-90
2022/01/31 03:33:01;;;;;;;4.03;1.70;;;5.40;93.70;;;;;;2080872;28;20037;-89
2022/01/31 03:34:02;;;;;;;5.88;1.92;;;5.40;93.90;;;;;;2080433;28;20184;-90
2022/01/31 03:35:04;;;;;;;5.80;2.08;;;5.40;93.80;;;;;;2082429;28;20056;-90
2022/01/31 03:36:05;;;;;;;6.13;2.00;;;5.40;93.80;;;;;;2082321;28;20030;-90
2022/01/31 03:37:06;;;;;;;7.30;2.05;;;5.40;93.70;;;;;;2076450;28;20038;-90
2022/01/31 03:38:07;;;;;;;7.85;2.30;;;5.50;93.90;;;;;;2066016;28;20058;-90
2022/01/31 03:39:07;;;;;;;10.15;2.33;;;5.50;93.90;;;;;;2073751;28;20190;-89
2022/01/31 03:40:09;;;;;;;6.85;1.85;;;5.40;93.80;;;;;;2066151;28;20109;-89
2022/01/31 03:41:16;;;;;;;7.70;2.15;;;5.50;93.90;;;;;;2057398;28;20045;-89
2022/01/31 03:42:18;;;;;;;7.32;1.95;;;5.50;93.90;;;;;;2082413;28;20120;-89
2022/01/31 03:43:19;;;;;;;6.18;1.70;;;5.50;93.90;;;;;;2084596;28;20086;-90
2022/01/31 03:44:20;;;;;;;9.52;1.85;;;5.50;93.90;;;;;;2066296;28;20069;-90
2022/01/31 03:45:21;;;;;;;6.47;1.67;;;5.50;93.90;;;;;;2077570;28;20140;-90
2022/01/31 03:46:23;;;;;;;7.47;2.00;;;5.60;93.90;;;;;;2082061;28;20038;-90
2022/01/31 03:47:23;;;;;;;5.13;1.60;;;5.60;93.90;;;;;;2090715;28;20103;-89
2022/01/31 03:48:27;;;;;;;6.28;1.80;;;5.60;93.90;;;;;;2084281;28;20535;-88
2022/01/31 03:49:28;;;;;;;7.05;1.80;;;5.60;93.90;;;;;;2075009;28;20038;-89
2022/01/31 03:50:28;;;;;;;4.80;1.55;;;5.60;93.90;;;;;;2067841;28;20052;-90
2022/01/31 03:51:29;;;;;;;5.45;1.70;;;5.60;93.90;;;;;;2090562;28;20041;-89
2022/01/31 03:52:30;;;;;;;6.68;1.92;;;5.60;93.90;;;;;;2073854;28;20077;-90
2022/01/31 03:53:31;;;;;;;7.63;1.73;;;5.60;94.00;;;;;;2072361;28;20045;-89
2022/01/31 03:54:31;;;;;;;7.35;1.70;;;5.60;93.90;;;;;;2082287;28;20034;-89
2022/01/31 03:55:32;;;;;;;7.70;1.85;;;5.60;93.90;;;;;;2081635;28;20128;-90
2022/01/31 03:56:33;;;;;;;7.13;1.77;;;5.60;93.90;;;;;;2082407;28;20092;-90
2022/01/31 03:57:33;;;;;;;5.20;1.73;;;5.60;94.00;;;;;;2074336;28;20127;-89
2022/01/31 03:58:34;;;;;;;5.82;1.23;;;5.70;94.00;;;;;;2074033;28;20069;-89
2022/01/31 03:59:35;;;;;;;6.47;1.73;;;5.70;94.00;;;;;;2082638;28;20029;-90
2022/01/31 04:00:36;;;;;;;9.98;1.40;;;5.70;93.90;;;;;;2066007;28;20043;-89
2022/01/31 04:01:36;;;;;;;8.80;1.60;;;5.70;94.00;;;;;;2060967;28;20126;-89
2022/01/31 04:02:37;;;;;;;6.70;1.65;;;5.70;94.00;;;;;;2073628;28;20034;-90
2022/01/31 04:03:37;;;;;;;5.63;1.38;;;5.70;94.00;;;;;;2081834;28;20064;-90
2022/01/31 04:04:38;;;;;;;6.10;1.45;;;5.70;93.90;;;;;;2090714;28;20513;-90
2022/01/31 04:05:39;;;;;;;7.82;1.88;;;5.70;93.90;;;;;;2090168;28;20098;-89
2022/01/31 04:06:40;;;;;;;5.10;1.30;;;5.70;93.90;;;;;;2081674;28;20573;-89
2022/01/31 04:07:43;;;;;;;6.03;1.33;;;5.70;93.90;;;;;;2092650;28;20132;-90
2022/01/31 04:08:43;;;;;;;4.90;1.40;;;5.70;93.90;;;;;;2082244;28;20057;-89
2022/01/31 04:09:44;;;;;;;3.85;1.20;;;5.70;93.90;;;;;;2089132;28;20041;-89
2022/01/31 04:10:44;;;;;;;5.22;1.25;;;5.70;94.00;;;;;;2089837;28;20040;-89
2022/01/31 04:11:45;;;;;;;7.85;1.45;;;5.70;94.00;;;;;;2082251;28;20088;-88
2022/01/31 04:12:46;;;;;;;6.47;1.15;;;5.70;94.00;;;;;;2074023;28;20125;-90
2022/01/31 04:13:47;;;;;;;6.50;1.48;;;5.70;93.90;;;;;;2074017;28;20045;-90
2022/01/31 04:14:47;;;;;;;4.53;1.30;;;5.70;93.90;;;;;;2094006;28;20111;-90
2022/01/31 04:15:48;;;;;;;7.55;1.55;;;5.70;94.00;;;;;;2084681;28;20041;-89
2022/01/31 04:16:48;;;;;;;4.97;1.40;;;5.70;94.00;;;;;;2092320;28;20040;-89
2022/01/31 04:17:49;;;;;;;7.53;1.40;;;5.70;94.00;;;;;;2100480;28;20060;-90
2022/01/31 04:18:50;;;;;;;6.78;1.55;;;5.70;94.00;;;;;;2097758;28;20064;-88
2022/01/31 04:19:51;;;;;;;9.75;1.48;;;5.70;94.00;;;;;;2094939;28;20040;-89
2022/01/31 04:20:53;;;;;;;6.18;1.10;;;5.70;94.00;;;;;;2096290;28;20025;-89
2022/01/31 04:21:53;;;;;;;6.22;1.63;;;5.70;94.00;;;;;;2100075;28;20021;-89
2022/01/31 04:22:59;;;;;;;7.70;1.45;;;5.70;94.20;;;;;;2099167;28;20037;-89
2022/01/31 04:24:00;;;;;;;8.50;1.60;;;5.70;94.00;;;;;;2074477;28;20066;-89
2022/01/31 04:25:03;;;;;;;10.20;1.95;;;5.70;94.00;;;;;;2079696;28;20477;-88
2022/01/31 04:26:22;;;;;;;7.38;1.67;;;5.70;94.10;;;;;;2082448;28;20053;-89
2022/01/31 04:27:27;;;;;;;7.93;1.50;;;5.70;94.00;;;;;;2068490;28;20053;-89
2022/01/31 04:28:38;;;;;;;6.88;1.65;;;5.70;94.10;;;;;;2071883;28;20135;-89
2022/01/31 04:29:40;;;;;;;6.05;1.15;;;5.70;94.00;;;;;;2079219;28;20041;-89
2022/01/31 04:30:46;;;;;;;6.65;1.30;;;5.70;94.00;;;;;;2074533;28;20084;-89
2022/01/31 04:31:49;;;;;;;5.88;1.85;;;5.70;93.90;;;;;;2078683;28;20037;-89
2022/01/31 04:32:50;;;;;;;8.18;1.40;;;5.70;93.90;;;;;;2074904;28;20174;-89
2022/01/31 04:33:53;;;;;;;6.57;1.50;;;5.70;94.00;;;;;;2081993;28;20048;-89
2022/01/31 04:34:53;;;;;;;7.43;1.45;;;5.70;94.00;;;;;;2073926;28;20029;-89
2022/01/31 04:35:55;;;;;;;7.82;1.40;;;5.70;94.00;;;;;;2089519;28;20041;-89
2022/01/31 04:36:56;;;;;;;10.23;1.55;;;5.70;94.00;;;;;;2090234;28;20041;-89
2022/01/31 04:37:58;;;;;;;8.80;1.70;;;5.70;94.10;;;;;;2089974;28;20515;-89
2022/01/31 04:38:59;;;;;;;8.48;1.50;;;5.70;94.00;;;;;;2089464;28;20139;-89
2022/01/31 04:39:59;;;;;;;6.05;1.52;;;5.70;94.00;;;;;;2090065;28;20412;-89
2022/01/31 04:41:00;;;;;;;8.50;1.70;;;5.70;94.00;;;;;;2073224;28;20500;-89
2022/01/31 04:42:01;;;;;;;8.20;1.60;;;5.70;94.00;;;;;;2080854;28;20483;-88
2022/01/31 04:43:01;;;;;;;6.00;1.50;;;5.70;94.10;;;;;;2106580;28;20058;-89
2022/01/31 04:44:06;;;;;;;6.45;1.17;;;5.70;94.00;;;;;;2099235;28;20122;-87
2022/01/31 04:45:07;;;;;;;9.52;1.40;;;5.70;94.00;;;;;;2098581;28;20040;-88
2022/01/31 04:46:09;;;;;;;7.78;1.30;;;5.70;94.00;;;;;;2081257;28;20478;-89
2022/01/31 04:47:10;;;;;;;6.63;1.40;;;5.70;94.00;;;;;;2075071;28;20185;-89
2022/01/31 04:48:11;;;;;;;7.70;1.40;;;5.70;94.00;;;;;;2088325;28;20100;-89
2022/01/31 04:49:12;;;;;;;6.80;1.33;;;5.70;94.10;;;;;;2075689;28;20137;-90
2022/01/31 04:50:13;;;;;;;11.32;1.80;;;5.60;94.00;;;;;;2074307;28;20038;-90
2022/01/31 04:51:13;;;;;;;7.38;1.40;;;5.60;94.10;;;;;;2091535;28;20065;-89
2022/01/31 04:52:14;;;;;;;9.98;2.13;;;5.60;94.10;;;;;;2090335;28;20157;-89
2022/01/31 04:53:15;;;;;;;9.77;1.65;;;5.70;94.10;;;;;;2082117;28;20410;-89
2022/01/31 04:54:15;;;;;;;7.72;1.42;;;5.60;94.00;;;;;;2082029;28;20113;-89
2022/01/31 04:55:16;;;;;;;9.57;2.03;;;5.60;94.30;;;;;;2082308;28;20049;-89
2022/01/31 04:56:17;;;;;;;7.07;1.70;;;5.60;94.00;;;;;;2073317;28;20037;-90
2022/01/31 04:57:18;;;;;;;6.82;1.40;;;5.60;94.10;;;;;;2097623;28;20043;-88
2022/01/31 04:58:22;;;;;;;7.20;1.42;;;5.60;94.10;;;;;;2092195;28;20571;-89
2022/01/31 04:59:23;;;;;;;9.95;1.75;;;5.60;94.00;;;;;;2073716;28;20400;-90
2022/01/31 05:00:25;;;;;;;11.70;2.08;;;5.60;94.10;;;;;;2074645;28;20120;-90
2022/01/31 05:01:26;;;;;;;9.57;1.83;;;5.60;94.10;;;;;;2081690;28;20041;-90
2022/01/31 05:02:27;;;;;;;8.38;2.10;;;5.60;94.10;;;;;;2074373;28;20042;-90
2022/01/31 05:03:29;;;;;;;5.80;1.20;;;5.60;94.10;;;;;;2089366;28;20722;-90
2022/01/31 05:04:31;;;;;;;7.85;1.40;;;5.60;94.00;;;;;;2081353;28;20029;-90
2022/01/31 05:05:31;;;;;;;8.23;1.35;;;5.60;94.30;;;;;;2082292;28;20204;-89
2022/01/31 05:06:36;;;;;;;7.25;1.35;;;5.60;94.00;;;;;;2086394;28;20064;-90
2022/01/31 05:07:37;;;;;;;6.68;1.88;;;5.60;94.10;;;;;;2085114;28;20056;-89
2022/01/31 05:08:38;;;;;;;7.20;1.30;;;5.60;94.10;;;;;;2098869;28;20028;-90
2022/01/31 05:09:39;;;;;;;9.63;1.80;;;5.60;94.10;;;;;;2086198;28;20076;-90
2022/01/31 05:10:46;;;;;;;6.72;1.27;;;5.60;94.10;;;;;;2081973;28;20033;-89
2022/01/31 05:11:47;;;;;;;9.20;1.58;;;5.60;94.10;;;;;;2085464;28;20175;-89
2022/01/31 05:12:48;;;;;;;5.50;1.27;;;5.60;94.10;;;;;;2087741;28;20120;-90
2022/01/31 05:13:49;;;;;;;6.32;1.20;;;5.60;94.10;;;;;;2096317;28;20044;-89
2022/01/31 05:14:49;;;;;;;7.80;1.33;;;5.60;94.30;;;;;;2104069;28;20078;-90
2022/01/31 05:15:53;;;;;;;7.63;1.52;;;5.60;94.10;;;;;;2102443;28;20033;-89
2022/01/31 05:16:54;;;;;;;8.50;1.67;;;5.60;94.10;;;;;;2088354;28;20038;-89
2022/01/31 05:17:55;;;;;;;8.25;1.33;;;5.60;94.10;;;;;;2080855;28;20043;-89
2022/01/31 05:18:55;;;;;;;8.52;1.58;;;5.60;94.10;;;;;;2086293;28;20040;-89
2022/01/31 05:19:56;;;;;;;8.07;1.33;;;5.60;94.10;;;;;;2081172;28;20038;-90
2022/01/31 05:20:56;;;;;;;9.30;1.70;;;5.60;94.10;;;;;;2073203;28;20041;-88
2022/01/31 05:21:57;;;;;;;7.57;1.42;;;5.60;94.10;;;;;;2059692;28;20070;-89
2022/01/31 05:22:58;;;;;;;10.07;1.70;;;5.60;94.10;;;;;;2065510;28;20041;-89
2022/01/31 05:23:58;;;;;;;10.73;1.80;;;5.60;94.10;;;;;;2087156;28;20514;-89
2022/01/31 05:24:59;;;;;;;10.68;1.70;;;5.50;94.10;;;;;;2096934;28;20541;-89
2022/01/31 05:26:00;;;;;;;8.40;1.90;;;5.50;94.10;;;;;;2098077;28;20045;-90